createdAt,value
2023-05-22T00:01:07.291Z,17.61
2023-05-22T00:04:09.959Z,17.62
2023-05-22T00:07:13.842Z,17.63
2023-05-22T00:10:16.237Z,17.59
2023-05-22T00:13:18.650Z,17.57
2023-05-22T00:16:21.134Z,17.57
2023-05-22T00:19:23.754Z,17.52
2023-05-22T00:22:28.310Z,17.51
2023-05-22T00:25:30.944Z,17.48
2023-05-22T00:28:33.352Z,17.41
2023-05-22T00:31:35.830Z,17.36
2023-05-22T00:34:38.300Z,17.31
2023-05-22T00:37:42.117Z,17.26
2023-05-22T00:40:44.526Z,17.24
2023-05-22T00:43:47.692Z,17.22
2023-05-22T00:46:50.207Z,17.29
2023-05-22T00:49:52.611Z,17.25
2023-05-22T00:52:56.337Z,17.23
2023-05-22T00:55:58.935Z,17.09
2023-05-22T00:59:01.401Z,17.05
2023-05-22T01:02:03.913Z,16.96
2023-05-22T01:05:07.004Z,16.98
2023-05-22T01:08:10.899Z,16.93
2023-05-22T01:11:14.209Z,16.93
2023-05-22T01:14:18.408Z,16.86
2023-05-22T01:17:24.578Z,16.79
2023-05-22T01:20:29.074Z,16.73
2023-05-22T01:23:54.297Z,16.71
2023-05-22T01:27:11.834Z,16.71
2023-05-22T01:30:21.039Z,16.69
2023-05-22T01:33:26.697Z,16.65
2023-05-22T01:36:31.009Z,16.65
2023-05-22T01:39:33.633Z,16.64
2023-05-22T01:42:36.232Z,16.62
2023-05-22T01:45:38.730Z,16.66
2023-05-22T01:48:42.573Z,16.62
2023-05-22T01:51:49.126Z,16.66
2023-05-22T01:54:53.714Z,16.59
2023-05-22T01:57:57.232Z,16.52
2023-05-22T02:01:02.217Z,16.41
2023-05-22T02:04:06.589Z,16.34
2023-05-22T02:07:11.438Z,16.32
2023-05-22T02:10:14.600Z,16.24
2023-05-22T02:13:17.112Z,16.18
2023-05-22T02:16:21.732Z,16.20
2023-05-22T02:19:25.701Z,16.19
2023-05-22T02:22:28.214Z,16.22
2023-05-22T02:25:30.751Z,16.26
2023-05-22T02:28:33.205Z,16.29
2023-05-22T02:31:36.212Z,16.32
2023-05-22T02:34:40.101Z,16.40
2023-05-22T02:37:42.546Z,16.46
2023-05-22T02:40:45.175Z,16.50
2023-05-22T02:43:47.639Z,16.54
2023-05-22T02:46:50.146Z,16.58
2023-05-22T02:49:54.053Z,16.63
2023-05-22T02:52:56.522Z,16.67
2023-05-22T02:55:59.718Z,16.68
2023-05-22T02:59:02.147Z,16.67
2023-05-22T03:02:04.900Z,16.70
2023-05-22T03:05:09.322Z,16.70
2023-05-22T03:08:12.089Z,16.70
2023-05-22T03:11:14.501Z,16.68
2023-05-22T03:14:16.942Z,16.66
2023-05-22T03:17:19.525Z,16.63
2023-05-22T03:20:23.359Z,16.65
2023-05-22T03:23:26.057Z,16.71
2023-05-22T03:26:28.957Z,16.74
2023-05-22T03:29:31.357Z,16.76
2023-05-22T03:32:37.216Z,16.77
2023-05-22T03:35:41.044Z,16.79
2023-05-22T03:38:43.529Z,16.80
2023-05-22T03:41:45.914Z,16.84
2023-05-22T03:44:49.314Z,16.91
2023-05-22T03:47:51.823Z,17.01
2023-05-22T03:50:55.663Z,17.04
2023-05-22T03:53:58.081Z,17.10
2023-05-22T03:57:00.730Z,17.16
2023-05-22T04:00:09.686Z,17.15
2023-05-22T04:03:14.595Z,17.15
2023-05-22T04:06:21.615Z,17.11
2023-05-22T04:09:24.160Z,17.16
2023-05-22T04:12:26.693Z,17.19
2023-05-22T04:15:29.322Z,17.22
2023-05-22T04:18:31.751Z,17.27
2023-05-22T04:21:35.789Z,17.27
2023-05-22T04:24:39.693Z,17.25
2023-05-22T04:27:42.498Z,17.23
2023-05-22T04:30:44.995Z,17.28
2023-05-22T04:33:48.290Z,17.33
2023-05-22T04:36:52.715Z,17.35
2023-05-22T04:39:58.237Z,17.38
2023-05-22T04:43:00.800Z,17.42
2023-05-22T04:46:03.231Z,17.52
2023-05-22T04:49:05.642Z,17.61
2023-05-22T04:52:11.611Z,17.72
2023-05-22T04:55:14.104Z,17.83
2023-05-22T04:58:16.533Z,17.92
2023-05-22T05:01:19.784Z,18.00
2023-05-22T05:04:22.202Z,18.04
2023-05-22T05:07:26.092Z,18.11
2023-05-22T05:10:28.438Z,18.19
2023-05-22T05:13:31.253Z,18.34
2023-05-22T05:16:33.760Z,18.45
2023-05-22T05:19:37.146Z,18.65
2023-05-22T05:22:41.064Z,18.78
2023-05-22T05:25:43.460Z,18.82
2023-05-22T05:28:45.937Z,18.93
2023-05-22T05:31:48.379Z,19.13
2023-05-22T05:34:51.449Z,19.31
2023-05-22T05:37:55.218Z,19.49
2023-05-22T05:40:57.633Z,19.77
2023-05-22T05:44:01.346Z,20.09
2023-05-22T05:47:08.936Z,20.50
2023-05-22T05:50:12.544Z,20.63
2023-05-22T05:53:16.466Z,20.72
2023-05-22T05:56:18.876Z,20.93
2023-05-22T05:59:21.907Z,21.11
2023-05-22T06:02:24.464Z,21.31
2023-05-22T06:05:29.267Z,21.42
2023-05-22T06:08:34.423Z,21.39
2023-05-22T06:11:37.142Z,21.51
2023-05-22T06:14:40.079Z,21.59
2023-05-22T06:17:42.979Z,21.59
2023-05-22T06:20:45.389Z,21.64
2023-05-22T06:23:49.703Z,21.69
2023-05-22T06:26:52.116Z,21.79
2023-05-22T06:29:55.661Z,21.92
2023-05-22T06:32:58.902Z,22.04
2023-05-22T06:36:01.602Z,22.16
2023-05-22T06:39:05.344Z,22.31
2023-05-22T06:42:07.987Z,22.30
2023-05-22T06:45:10.776Z,22.42
2023-05-22T06:48:13.249Z,22.46
2023-05-22T06:51:15.650Z,22.56
2023-05-22T06:54:21.123Z,22.72
2023-05-22T06:57:24.083Z,22.67
2023-05-22T07:00:26.588Z,22.71
2023-05-22T07:03:28.983Z,22.85
2023-05-22T07:06:33.823Z,22.96
2023-05-22T07:09:37.590Z,23.17
2023-05-22T07:12:39.966Z,23.37
2023-05-22T07:15:42.836Z,23.46
2023-05-22T07:18:47.077Z,23.32
2023-05-22T07:21:49.540Z,23.28
2023-05-22T07:24:53.310Z,23.49
2023-05-22T07:27:55.820Z,23.89
2023-05-22T07:30:58.159Z,24.25
2023-05-22T07:34:00.871Z,24.34
2023-05-22T07:37:07.464Z,24.71
2023-05-22T07:40:12.081Z,25.03
2023-05-22T07:43:15.268Z,25.34
2023-05-22T07:46:17.834Z,25.74
2023-05-22T07:49:22.014Z,25.65
2023-05-22T07:52:24.477Z,25.78
2023-05-22T07:55:28.207Z,26.27
2023-05-22T07:58:30.661Z,26.35
2023-05-22T08:01:33.077Z,26.35
2023-05-22T08:04:35.766Z,26.58
2023-05-22T08:07:38.245Z,26.95
2023-05-22T08:10:58.310Z,27.26
2023-05-22T08:14:04.832Z,26.83
2023-05-22T08:17:07.393Z,26.88
2023-05-22T08:20:11.304Z,27.08
2023-05-22T08:23:13.984Z,27.38
2023-05-22T08:26:17.752Z,27.44
2023-05-22T08:29:20.198Z,27.43
2023-05-22T08:32:22.658Z,27.61
2023-05-22T08:35:25.113Z,27.44
2023-05-22T08:38:27.551Z,27.38
2023-05-22T08:41:31.328Z,27.16
2023-05-22T08:44:33.810Z,27.39
2023-05-22T08:47:36.676Z,27.53
2023-05-22T08:50:40.771Z,27.47
2023-05-22T08:53:43.315Z,27.48
2023-05-22T08:56:56.329Z,27.42
2023-05-22T08:59:59.832Z,27.53
2023-05-22T09:03:06.591Z,27.69
2023-05-22T09:06:10.373Z,28.01
2023-05-22T09:09:13.072Z,28.62
2023-05-22T09:12:16.904Z,28.91
2023-05-22T09:15:21.278Z,29.24
2023-05-22T09:18:23.799Z,29.94
2023-05-22T09:21:30.683Z,30.24
2023-05-22T09:24:36.259Z,30.74
2023-05-22T09:27:40.055Z,30.92
2023-05-22T09:30:43.436Z,30.99
2023-05-22T09:33:46.155Z,30.11
2023-05-22T09:36:49.917Z,28.81
2023-05-22T09:39:54.650Z,28.67
2023-05-22T09:42:58.413Z,29.37
2023-05-22T09:46:02.329Z,29.14
2023-05-22T09:49:04.933Z,29.31
2023-05-22T09:52:07.599Z,29.42
2023-05-22T09:55:10.229Z,29.34
2023-05-22T09:58:13.989Z,29.47
2023-05-22T10:01:17.381Z,29.88
2023-05-22T10:04:19.976Z,29.69
2023-05-22T10:07:23.090Z,28.48
2023-05-22T10:10:25.851Z,28.57
2023-05-22T10:13:29.692Z,29.01
2023-05-22T10:16:33.951Z,29.19
2023-05-22T10:19:39.643Z,28.57
2023-05-22T10:22:44.279Z,28.74
2023-05-22T10:25:46.788Z,29.08
2023-05-22T10:28:51.875Z,29.31
2023-05-22T10:31:56.117Z,29.22
2023-05-22T10:35:00.949Z,28.80
2023-05-22T10:38:07.127Z,29.20
2023-05-22T10:41:09.674Z,29.38
2023-05-22T10:44:13.436Z,29.03
2023-05-22T10:47:15.955Z,28.86
2023-05-22T10:50:18.621Z,28.82
2023-05-22T10:53:22.284Z,28.84
2023-05-22T10:56:25.779Z,29.06
2023-05-22T10:59:35.931Z,29.03
2023-05-22T11:02:42.562Z,29.29
2023-05-22T11:05:45.037Z,29.67
2023-05-22T11:08:48.731Z,29.89
2023-05-22T11:12:06.122Z,29.31
2023-05-22T11:15:10.683Z,29.25
2023-05-22T11:18:14.999Z,29.06
2023-05-22T11:21:17.672Z,29.28
2023-05-22T11:24:20.079Z,28.91
2023-05-22T11:27:23.013Z,29.26
2023-05-22T11:30:27.862Z,29.19
2023-05-22T11:33:30.282Z,29.72
2023-05-22T11:36:32.736Z,30.14
2023-05-22T11:39:35.382Z,30.45
2023-05-22T11:42:37.853Z,30.29
2023-05-22T11:45:41.713Z,29.66
2023-05-22T11:48:44.225Z,29.26
2023-05-22T11:51:46.808Z,28.93
2023-05-22T11:54:49.367Z,29.79
2023-05-22T11:57:51.900Z,29.93
2023-05-22T12:00:55.795Z,30.43
2023-05-22T12:03:58.320Z,30.60
2023-05-22T12:07:00.829Z,31.21
2023-05-22T12:10:04.224Z,31.57
2023-05-22T12:13:06.902Z,31.55
2023-05-22T12:18:59.831Z,31.58
2023-05-22T12:22:05.608Z,31.27
2023-05-22T12:25:13.837Z,31.20
2023-05-22T12:28:16.419Z,31.53
2023-05-22T12:31:22.558Z,31.96
2023-05-22T12:34:26.642Z,32.21
2023-05-22T12:37:29.224Z,32.41
2023-05-22T12:40:31.681Z,33.18
2023-05-22T12:43:34.261Z,33.57
2023-05-22T12:46:36.907Z,33.43
2023-05-22T12:49:40.881Z,33.23
2023-05-22T12:52:43.491Z,33.26
2023-05-22T12:55:46.158Z,33.16
2023-05-22T12:58:48.839Z,33.70
2023-05-22T13:01:51.491Z,34.91
2023-05-22T13:04:55.523Z,34.48
2023-05-22T13:07:58.099Z,34.09
2023-05-22T13:11:00.707Z,33.66
2023-05-22T13:14:03.336Z,34.21
2023-05-22T13:17:06.700Z,35.06
2023-05-22T13:20:12.112Z,35.04
2023-05-22T13:23:14.746Z,35.66
2023-05-22T13:26:17.278Z,35.92
2023-05-22T13:29:19.881Z,35.16
2023-05-22T13:32:22.416Z,34.81
2023-05-22T13:35:26.496Z,34.91
2023-05-22T13:38:29.058Z,36.05
2023-05-22T13:41:31.735Z,37.52
2023-05-22T13:44:34.344Z,41.65
2023-05-22T13:47:37.119Z,42.12
2023-05-22T13:50:41.741Z,44.06
2023-05-22T13:53:44.316Z,45.83
2023-05-22T13:56:46.939Z,48.25
2023-05-22T13:59:49.574Z,47.66
2023-05-22T14:02:52.193Z,46.23
2023-05-22T14:05:56.167Z,47.87
2023-05-22T14:08:58.745Z,41.44
2023-05-22T14:12:02.063Z,43.47
2023-05-22T14:15:05.103Z,40.57
2023-05-22T14:18:07.675Z,37.53
2023-05-22T14:21:11.781Z,34.22
2023-05-22T14:24:14.504Z,33.22
2023-05-22T14:27:17.070Z,33.57
2023-05-22T14:30:19.678Z,33.20
2023-05-22T14:33:22.219Z,32.85
2023-05-22T14:36:26.218Z,32.46
2023-05-22T14:39:28.898Z,32.12
2023-05-22T14:42:31.551Z,31.97
2023-05-22T14:45:34.102Z,30.89
2023-05-22T14:48:37.729Z,31.03
2023-05-22T14:51:41.732Z,31.31
2023-05-22T14:54:44.296Z,31.53
2023-05-22T14:57:46.904Z,31.46
2023-05-22T15:00:49.441Z,30.95
2023-05-22T15:03:51.835Z,30.60
2023-05-22T15:06:55.779Z,30.12
2023-05-22T15:09:58.794Z,28.81
2023-05-22T15:13:01.653Z,29.21
2023-05-22T15:16:04.404Z,29.35
2023-05-22T15:19:07.408Z,30.09
2023-05-22T15:22:19.422Z,31.23
2023-05-22T15:25:22.662Z,31.19
2023-05-22T15:28:25.169Z,31.26
2023-05-22T15:31:29.031Z,29.91
2023-05-22T15:34:31.742Z,29.06
2023-05-22T15:37:36.459Z,28.78
2023-05-22T15:40:39.592Z,29.35
2023-05-22T15:43:42.259Z,29.86
2023-05-22T15:46:44.814Z,30.33
2023-05-22T15:49:47.498Z,30.80
2023-05-22T15:52:51.482Z,30.66
2023-05-22T15:55:54.609Z,29.87
2023-05-22T15:58:57.395Z,29.87
2023-05-22T16:01:59.876Z,30.35
2023-05-22T16:05:02.510Z,31.17
2023-05-22T16:08:09.713Z,34.49
2023-05-22T16:11:12.334Z,37.65
2023-05-22T16:14:15.076Z,39.11
2023-05-22T16:17:18.053Z,39.57
2023-05-22T16:20:22.481Z,42.70
2023-05-22T16:23:26.785Z,42.68
2023-05-22T16:26:29.324Z,45.28
2023-05-22T16:29:32.645Z,46.59
2023-05-22T16:32:35.545Z,47.44
2023-05-22T16:35:38.540Z,45.01
2023-05-22T16:38:43.035Z,39.23
2023-05-22T16:41:45.754Z,36.50
2023-05-22T16:44:48.513Z,36.44
2023-05-22T16:47:51.878Z,38.43
2023-05-22T16:50:56.137Z,40.00
2023-05-22T16:54:00.059Z,40.02
2023-05-22T16:57:03.366Z,39.91
2023-05-22T17:00:07.430Z,38.55
2023-05-22T17:03:11.747Z,35.04
2023-05-22T17:06:14.872Z,32.77
2023-05-22T17:09:18.783Z,31.39
2023-05-22T17:12:21.572Z,30.89
2023-05-22T17:15:24.393Z,30.73
2023-05-22T17:18:27.240Z,29.60
2023-05-22T17:21:30.741Z,29.37
2023-05-22T17:24:34.723Z,29.53
2023-05-22T17:27:37.465Z,29.22
2023-05-22T17:30:40.315Z,28.98
2023-05-22T17:33:44.083Z,28.74
2023-05-22T17:36:47.053Z,28.51
2023-05-22T17:39:51.804Z,28.44
2023-05-22T17:42:54.638Z,28.30
2023-05-22T17:45:57.321Z,28.21
2023-05-22T17:48:59.751Z,28.18
2023-05-22T17:52:02.441Z,27.65
2023-05-22T17:55:06.779Z,27.25
2023-05-22T17:58:09.294Z,26.71
2023-05-22T18:01:12.143Z,26.80
2023-05-22T18:04:14.908Z,26.41
2023-05-22T18:07:17.824Z,26.22
2023-05-22T18:10:24.501Z,26.16
2023-05-22T18:13:27.560Z,25.96
2023-05-22T18:16:30.183Z,25.84
2023-05-22T18:19:33.027Z,25.57
2023-05-22T18:22:35.748Z,25.34
2023-05-22T18:25:39.774Z,25.32
2023-05-22T18:28:42.497Z,25.25
2023-05-22T18:31:45.008Z,25.01
2023-05-22T18:34:48.688Z,24.91
2023-05-22T18:37:51.444Z,24.76
2023-05-22T18:40:56.271Z,24.65
2023-05-22T18:43:59.644Z,24.53
2023-05-22T18:47:02.303Z,24.26
2023-05-22T18:50:05.830Z,23.97
2023-05-22T18:53:08.425Z,23.88
2023-05-22T18:56:12.428Z,23.87
2023-05-22T18:59:15.053Z,23.83
2023-05-22T19:02:21.094Z,23.78
2023-05-22T19:05:23.709Z,23.64
2023-05-22T19:08:26.765Z,23.58
2023-05-22T19:11:30.821Z,23.51
2023-05-22T19:14:33.442Z,23.47
2023-05-22T19:17:36.105Z,23.38
2023-05-22T19:20:39.429Z,23.31
2023-05-22T19:23:42.851Z,23.17
2023-05-22T19:26:46.799Z,23.04
2023-05-22T19:29:49.472Z,22.99
2023-05-22T19:32:55.638Z,22.92
2023-05-22T19:35:58.883Z,22.85
2023-05-22T19:39:01.436Z,22.77
2023-05-22T19:42:08.115Z,22.66
2023-05-22T19:45:11.137Z,22.59
2023-05-22T19:48:14.887Z,22.52
2023-05-22T19:51:17.468Z,22.44
2023-05-22T19:54:20.017Z,22.36
2023-05-22T19:57:24.051Z,22.35
2023-05-22T20:00:28.399Z,22.24
2023-05-22T20:03:31.215Z,22.20
2023-05-22T20:06:35.080Z,22.20
2023-05-22T20:09:37.858Z,22.21
2023-05-22T20:12:42.138Z,22.16
2023-05-22T20:15:47.772Z,22.18
2023-05-22T20:18:50.907Z,22.08
2023-05-22T20:21:53.650Z,22.01
2023-05-22T20:24:56.294Z,21.99
2023-05-22T20:28:00.190Z,21.96
2023-05-22T20:31:02.771Z,21.93
2023-05-22T20:34:05.427Z,21.95
2023-05-22T20:37:10.057Z,21.88
2023-05-22T20:40:14.125Z,21.80
2023-05-22T20:43:18.948Z,21.75
2023-05-22T20:46:22.778Z,21.63
2023-05-22T20:49:26.367Z,21.60
2023-05-22T20:52:30.408Z,21.50
2023-05-22T20:55:33.762Z,21.47
2023-05-22T20:58:39.195Z,21.44
2023-05-22T21:01:42.110Z,21.40
2023-05-22T21:04:44.805Z,21.42
2023-05-22T21:07:47.474Z,21.46
2023-05-22T21:10:50.172Z,21.46
2023-05-22T21:13:54.312Z,21.41
2023-05-22T21:16:56.932Z,21.42
2023-05-22T21:19:59.732Z,21.31
2023-05-22T21:23:02.387Z,21.26
2023-05-22T21:26:05.060Z,21.29
2023-05-22T21:29:09.194Z,21.24
2023-05-22T21:32:11.924Z,21.19
2023-05-22T21:35:14.553Z,21.22
2023-05-22T21:38:17.173Z,21.16
2023-05-22T21:41:19.759Z,21.09
2023-05-22T21:44:23.863Z,21.12
2023-05-22T21:47:26.507Z,21.12
2023-05-22T21:50:29.065Z,21.09
2023-05-22T21:53:31.678Z,21.09
2023-05-22T21:56:34.437Z,21.11
2023-05-22T21:59:38.593Z,21.09
2023-05-22T22:02:41.654Z,21.04
2023-05-22T22:05:44.290Z,21.02
2023-05-22T22:08:46.982Z,21.12
2023-05-22T22:11:49.713Z,21.09
2023-05-22T22:14:54.003Z,21.12
2023-05-22T22:17:59.566Z,21.11
2023-05-22T22:21:02.596Z,21.03
2023-05-22T22:24:05.495Z,21.06
2023-05-22T22:27:08.302Z,21.08
2023-05-22T22:30:12.896Z,21.10
2023-05-22T22:33:15.712Z,21.17
2023-05-22T22:36:18.451Z,21.18
2023-05-22T22:39:21.064Z,21.13
2023-05-22T22:42:24.927Z,21.06
2023-05-22T22:45:28.913Z,21.04
2023-05-22T22:48:31.506Z,21.02
2023-05-22T22:51:34.581Z,21.04
2023-05-22T22:54:37.106Z,21.06
2023-05-22T22:57:43.078Z,20.95
2023-05-22T23:00:47.072Z,20.86
2023-05-22T23:03:49.574Z,20.85
2023-05-22T23:06:52.566Z,20.69
2023-05-22T23:09:55.246Z,20.75
2023-05-22T23:12:58.689Z,20.66
2023-05-22T23:16:02.903Z,20.54
2023-05-22T23:19:06.324Z,20.46
2023-05-22T23:22:09.161Z,20.57
2023-05-22T23:25:11.756Z,20.51
2023-05-22T23:28:14.487Z,20.49
2023-05-22T23:31:18.483Z,20.45
2023-05-22T23:34:21.540Z,20.35
2023-05-22T23:37:24.188Z,20.17
2023-05-22T23:40:26.805Z,20.40
2023-05-22T23:43:29.537Z,20.29
2023-05-22T23:46:33.756Z,20.12
2023-05-22T23:49:36.525Z,20.11
2023-05-22T23:52:39.276Z,20.08
2023-05-22T23:55:42.079Z,19.89
2023-05-22T23:58:45.002Z,19.95
